Time;durP1;ratioP1;P1;durP2;ratioP2;P2;SDS_P1;SDS_P2;PMS_P1;PMS_P2;Temp;Humidity;BMP_temperature;BMP_pressure;BME280_temperature;BME280_humidity;BME280_pressure;Samples;Min_cycle;Max_cycle;Signal;HPM_P1;HPM_P2
2022/04/18 00:01:05;;;;;;;3.53;2.30;;;;;;;;;;4963558;28;20873;-52
2022/04/18 00:03:32;;;;;;;3.57;2.10;;;;;;;;;;4984249;28;20434;-51
2022/04/18 00:06:11;;;;;;;4.60;2.13;;;;;;;;;;4983595;28;20445;-52
2022/04/18 00:08:38;;;;;;;2.93;2.60;;;;;;;;;;4976943;28;21046;-53
2022/04/18 00:11:04;;;;;;;2.53;2.20;;;;;;;;;;4992904;28;20445;-52
2022/04/18 00:13:33;;;;;;;2.90;2.10;;;;;;;;;;4963609;28;21548;-53
2022/04/18 00:15:59;;;;;;;2.77;1.97;;;;;;;;;;4986677;28;20468;-52
2022/04/18 00:18:27;;;;;;;4.27;2.43;;;;;;;;;;4978756;28;20515;-52
2022/04/18 00:20:54;;;;;;;3.17;2.60;;;;;;;;;;4984981;28;20547;-52
2022/04/18 00:23:20;;;;;;;2.83;2.00;;;;;;;;;;4985839;28;20666;-52
2022/04/18 00:25:47;;;;;;;2.13;1.90;;;;;;;;;;4975816;28;20453;-52
2022/04/18 00:28:15;;;;;;;2.37;2.17;;;;;;;;;;4980848;28;20456;-51
2022/04/18 00:30:42;;;;;;;3.70;2.67;;;;;;;;;;4984294;28;20512;-52
2022/04/18 00:33:09;;;;;;;4.07;2.87;;;;;;;;;;4975040;28;20437;-52
2022/04/18 00:35:51;;;;;;;6.40;3.10;;;;;;;;;;4978192;28;20495;-52
2022/04/18 00:38:52;;;;;;;4.70;2.53;;;;;;;;;;4979977;28;20438;-53
2022/04/18 00:41:27;;;;;;;2.50;1.70;;;;;;;;;;4983965;28;20456;-52
2022/04/18 00:43:53;;;;;;;2.50;2.10;;;;;;;;;;4967813;28;20444;-53
2022/04/18 00:46:19;;;;;;;3.10;2.30;;;;;;;;;;4985826;28;20437;-53
2022/04/18 00:48:46;;;;;;;2.57;1.80;;;;;;;;;;4979903;28;20442;-52
2022/04/18 00:51:17;;;;;;;3.80;2.47;;;;;;;;;;4995845;28;20481;-53
2022/04/18 00:53:44;;;;;;;5.00;3.43;;;;;;;;;;4973731;28;20499;-52
2022/04/18 00:56:12;;;;;;;2.80;2.30;;;;;;;;;;4984238;28;20453;-53
2022/04/18 00:58:39;;;;;;;2.80;2.30;;;;;;;;;;4967571;28;21591;-53
2022/04/18 01:01:05;;;;;;;2.77;2.33;;;;;;;;;;4986886;28;20449;-52
2022/04/18 01:03:31;;;;;;;3.07;2.07;;;;;;;;;;4978842;28;20460;-52
2022/04/18 01:06:00;;;;;;;2.47;2.27;;;;;;;;;;4984439;28;20513;-52
2022/04/18 01:11:29;;;;;;;3.10;2.33;;;;;;;;;;4962652;28;20568;-52
2022/04/18 01:13:56;;;;;;;4.07;2.73;;;;;;;;;;4986727;28;20466;-52
2022/04/18 01:16:21;;;;;;;2.57;2.37;;;;;;;;;;4981233;28;20450;-52
2022/04/18 01:18:49;;;;;;;3.10;2.83;;;;;;;;;;4985686;28;20438;-52
2022/04/18 01:21:20;;;;;;;4.23;2.53;;;;;;;;;;4973209;28;20244;-52
2022/04/18 01:23:47;;;;;;;3.20;2.80;;;;;;;;;;4984619;28;20441;-52
2022/04/18 01:29:05;;;;;;;3.43;2.37;;;;;;;;;;4982733;28;20449;-51
2022/04/18 01:31:32;;;;;;;5.43;2.43;;;;;;;;;;4974344;28;20545;-52
2022/04/18 01:33:58;;;;;;;1.83;1.67;;;;;;;;;;4983360;28;20860;-51
2022/04/18 01:36:25;;;;;;;3.00;2.03;;;;;;;;;;4982510;28;20433;-52
2022/04/18 01:39:08;;;;;;;2.17;1.97;;;;;;;;;;4988652;28;20444;-51
2022/04/18 01:41:52;;;;;;;4.77;2.23;;;;;;;;;;4966724;28;20436;-52
2022/04/18 01:44:49;;;;;;;4.30;3.30;;;;;;;;;;4972390;28;20811;-52
2022/04/18 01:47:19;;;;;;;3.10;2.10;;;;;;;;;;4982645;28;20540;-53
2022/04/18 01:49:59;;;;;;;4.07;2.60;;;;;;;;;;4997282;28;20468;-51
2022/04/18 01:52:25;;;;;;;3.63;2.07;;;;;;;;;;4983581;28;21022;-51
2022/04/18 01:54:57;;;;;;;3.97;2.90;;;;;;;;;;4977937;28;20564;-52
2022/04/18 01:57:23;;;;;;;2.33;2.00;;;;;;;;;;4984251;28;20460;-53
2022/04/18 01:59:49;;;;;;;4.43;2.43;;;;;;;;;;4978548;28;20447;-52
2022/04/18 02:02:15;;;;;;;3.10;2.50;;;;;;;;;;4985661;28;20437;-53
2022/04/18 02:04:41;;;;;;;3.87;2.27;;;;;;;;;;4968801;28;20541;-52
2022/04/18 02:07:10;;;;;;;5.20;2.53;;;;;;;;;;4979613;28;20809;-52
2022/04/18 02:12:40;;;;;;;2.63;2.33;;;;;;;;;;4981335;28;20535;-51
2022/04/18 02:15:07;;;;;;;2.93;2.63;;;;;;;;;;4978447;28;20509;-51
2022/04/18 02:17:33;;;;;;;3.43;3.10;;;;;;;;;;4982536;28;20436;-51
2022/04/18 02:20:10;;;;;;;3.47;2.40;;;;;;;;;;4979093;28;20448;-52
2022/04/18 02:22:42;;;;;;;3.50;2.30;;;;;;;;;;5002582;28;20465;-52
2022/04/18 02:25:16;;;;;;;2.40;2.10;;;;;;;;;;4967845;28;20453;-52
2022/04/18 02:27:43;;;;;;;3.10;2.80;;;;;;;;;;4983824;28;20448;-51
2022/04/18 02:30:09;;;;;;;2.80;2.23;;;;;;;;;;4983487;28;20894;-51
2022/04/18 02:32:48;;;;;;;2.50;2.03;;;;;;;;;;4996102;28;20439;-52
2022/04/18 02:35:21;;;;;;;3.27;2.07;;;;;;;;;;4968397;28;20483;-52
2022/04/18 02:37:47;;;;;;;2.73;2.40;;;;;;;;;;4997272;28;20432;-51
2022/04/18 02:40:26;;;;;;;4.43;2.57;;;;;;;;;;4990421;28;20445;-53
2022/04/18 02:42:52;;;;;;;3.67;2.60;;;;;;;;;;4984633;28;20441;-52
2022/04/18 02:45:21;;;;;;;3.57;2.63;;;;;;;;;;4978504;28;20440;-52
2022/04/18 02:47:48;;;;;;;3.87;2.80;;;;;;;;;;4987922;28;20818;-53
2022/04/18 02:50:18;;;;;;;4.97;2.70;;;;;;;;;;4964554;28;20452;-52
2022/04/18 02:52:44;;;;;;;3.73;3.37;;;;;;;;;;4958593;28;20433;-52
2022/04/18 02:55:11;;;;;;;3.97;2.93;;;;;;;;;;4980280;28;20540;-53
2022/04/18 02:57:37;;;;;;;4.33;2.73;;;;;;;;;;4958415;28;20456;-52
2022/04/18 03:00:03;;;;;;;5.70;2.63;;;;;;;;;;4990326;28;20437;-52
2022/04/18 03:02:33;;;;;;;3.70;3.30;;;;;;;;;;4991977;28;20422;-53
2022/04/18 03:04:59;;;;;;;2.93;2.07;;;;;;;;;;5002775;28;20475;-51
2022/04/18 03:07:27;;;;;;;4.97;3.00;;;;;;;;;;4962009;28;20433;-53
2022/04/18 03:09:53;;;;;;;3.53;2.90;;;;;;;;;;4971518;28;20441;-52
2022/04/18 03:15:25;;;;;;;3.40;2.73;;;;;;;;;;4970146;28;21125;-53
2022/04/18 03:17:51;;;;;;;4.50;3.07;;;;;;;;;;4981444;28;20513;-52
2022/04/18 03:20:22;;;;;;;3.13;2.30;;;;;;;;;;4991024;28;20996;-53
2022/04/18 03:22:48;;;;;;;4.37;2.27;;;;;;;;;;4973965;28;20486;-52
2022/04/18 03:25:28;;;;;;;3.47;3.00;;;;;;;;;;4985335;28;20548;-53
2022/04/18 03:27:58;;;;;;;3.47;3.00;;;;;;;;;;4975988;28;20344;-53
2022/04/18 03:31:00;;;;;;;5.87;3.30;;;;;;;;;;5003583;28;20445;-53
2022/04/18 03:33:28;;;;;;;5.67;3.23;;;;;;;;;;4981128;28;20510;-52
2022/04/18 03:41:23;;;;;;;3.47;3.07;;;;;;;;;;4983558;28;20471;-51
2022/04/18 03:43:51;;;;;;;4.70;3.27;;;;;;;;;;4991262;28;20457;-52
2022/04/18 03:46:35;;;;;;;2.63;2.43;;;;;;;;;;4966200;28;21569;-52
2022/04/18 03:49:01;;;;;;;5.00;2.60;;;;;;;;;;4984537;28;20539;-53
2022/04/18 03:51:27;;;;;;;5.10;3.00;;;;;;;;;;4966157;28;20454;-53
2022/04/18 03:53:53;;;;;;;4.10;2.80;;;;;;;;;;4989023;28;20276;-52
2022/04/18 03:56:19;;;;;;;3.30;3.00;;;;;;;;;;4983927;28;20860;-53
2022/04/18 03:58:45;;;;;;;3.40;2.50;;;;;;;;;;4988569;28;20432;-52
2022/04/18 04:01:11;;;;;;;3.47;2.90;;;;;;;;;;4966621;28;20974;-53
2022/04/18 04:03:37;;;;;;;3.50;2.87;;;;;;;;;;4969758;28;20449;-52
2022/04/18 04:06:25;;;;;;;3.70;2.63;;;;;;;;;;4996356;28;20454;-53
2022/04/18 04:08:51;;;;;;;4.43;2.77;;;;;;;;;;4981949;28;20428;-52
2022/04/18 04:11:17;;;;;;;6.43;3.33;;;;;;;;;;4992364;28;20448;-51
2022/04/18 04:13:44;;;;;;;3.80;3.43;;;;;;;;;;4989785;28;20425;-51
2022/04/18 04:16:10;;;;;;;6.00;2.60;;;;;;;;;;4962500;28;21671;-51
2022/04/18 04:18:36;;;;;;;5.10;3.17;;;;;;;;;;4983267;28;20943;-50
2022/04/18 04:21:31;;;;;;;6.13;3.07;;;;;;;;;;4973730;28;20448;-52
2022/04/18 04:23:58;;;;;;;2.53;2.33;;;;;;;;;;4987099;28;20449;-51
2022/04/18 04:26:24;;;;;;;3.70;2.83;;;;;;;;;;4959510;28;20882;-50
2022/04/18 04:28:50;;;;;;;5.60;3.20;;;;;;;;;;4987888;28;20449;-51
2022/04/18 04:31:22;;;;;;;3.63;2.70;;;;;;;;;;4959981;28;20453;-52
2022/04/18 04:33:48;;;;;;;3.20;2.70;;;;;;;;;;4985048;28;20437;-51
2022/04/18 04:36:17;;;;;;;4.90;3.03;;;;;;;;;;4962942;28;20480;-58
2022/04/18 04:38:44;;;;;;;4.10;2.93;;;;;;;;;;4973352;28;20843;-52
2022/04/18 04:41:22;;;;;;;4.60;3.53;;;;;;;;;;4974503;28;20484;-52
2022/04/18 04:43:49;;;;;;;3.97;3.00;;;;;;;;;;4986330;28;21052;-50
2022/04/18 04:46:15;;;;;;;4.73;3.13;;;;;;;;;;4960540;28;20445;-52
2022/04/18 04:48:41;;;;;;;2.93;2.50;;;;;;;;;;4987929;28;20442;-52
2022/04/18 04:51:24;;;;;;;5.20;3.00;;;;;;;;;;4955598;28;20451;-53
2022/04/18 04:53:51;;;;;;;4.10;3.00;;;;;;;;;;4997840;28;20446;-52
2022/04/18 04:56:19;;;;;;;3.70;3.20;;;;;;;;;;4955204;28;21044;-51
2022/04/18 04:58:46;;;;;;;2.80;2.37;;;;;;;;;;4980953;28;20448;-52
2022/04/18 05:01:20;;;;;;;3.50;2.30;;;;;;;;;;4995607;28;20433;-51
2022/04/18 05:03:46;;;;;;;3.40;3.10;;;;;;;;;;4983627;28;20448;-52
2022/04/18 05:06:14;;;;;;;4.93;3.20;;;;;;;;;;4962088;28;20966;-52
2022/04/18 05:08:40;;;;;;;4.53;3.00;;;;;;;;;;4982205;28;20429;-51
2022/04/18 05:11:17;;;;;;;5.70;2.90;;;;;;;;;;4957277;28;20461;-51
2022/04/18 05:13:46;;;;;;;5.77;2.60;;;;;;;;;;4961749;28;20430;-52
2022/04/18 05:19:33;;;;;;;5.70;3.17;;;;;;;;;;4959445;28;20544;-52
2022/04/18 05:21:59;;;;;;;2.63;2.43;;;;;;;;;;4976073;28;20449;-52
2022/04/18 05:24:29;;;;;;;4.10;3.43;;;;;;;;;;4967419;28;20441;-53
2022/04/18 05:26:59;;;;;;;7.73;3.60;;;;;;;;;;4983085;28;20591;-53
2022/04/18 05:29:25;;;;;;;3.57;2.53;;;;;;;;;;4982064;28;20441;-52
2022/04/18 05:31:58;;;;;;;2.70;2.50;;;;;;;;;;5000106;28;20460;-53
2022/04/18 05:34:31;;;;;;;7.13;2.57;;;;;;;;;;4980360;28;20484;-52
2022/04/18 05:36:57;;;;;;;5.10;2.63;;;;;;;;;;4988045;28;20429;-52
2022/04/18 05:39:24;;;;;;;2.60;2.40;;;;;;;;;;4967892;28;20978;-52
2022/04/18 05:41:50;;;;;;;3.00;2.70;;;;;;;;;;4981315;28;20442;-53
2022/04/18 05:44:20;;;;;;;2.63;2.40;;;;;;;;;;4962802;28;20440;-52
2022/04/18 05:46:47;;;;;;;5.73;2.30;;;;;;;;;;4995724;28;20445;-53
2022/04/18 05:49:13;;;;;;;2.77;2.43;;;;;;;;;;4970853;28;20421;-52
2022/04/18 05:51:39;;;;;;;4.83;2.60;;;;;;;;;;4981201;28;20456;-53
2022/04/18 05:54:05;;;;;;;6.10;2.90;;;;;;;;;;4981537;28;20437;-54
2022/04/18 05:56:31;;;;;;;3.23;2.10;;;;;;;;;;4980704;28;20451;-53
2022/04/18 05:58:58;;;;;;;3.43;2.47;;;;;;;;;;4960452;28;20946;-52
2022/04/18 06:01:24;;;;;;;2.73;2.27;;;;;;;;;;4980682;28;20444;-52
2022/04/18 06:03:51;;;;;;;2.70;2.20;;;;;;;;;;4979052;28;20434;-52
2022/04/18 06:06:17;;;;;;;2.93;2.50;;;;;;;;;;4976612;28;20449;-51
2022/04/18 06:08:43;;;;;;;2.80;2.03;;;;;;;;;;4983473;28;20437;-52
2022/04/18 06:11:17;;;;;;;2.57;2.33;;;;;;;;;;4978594;28;20461;-53
2022/04/18 06:13:43;;;;;;;4.87;2.30;;;;;;;;;;4974192;28;20456;-53
2022/04/18 06:16:10;;;;;;;5.80;2.80;;;;;;;;;;4981091;28;20473;-52
2022/04/18 06:18:36;;;;;;;4.00;2.87;;;;;;;;;;4973546;28;20440;-52
2022/04/18 06:21:12;;;;;;;6.10;3.80;;;;;;;;;;4985088;28;20448;-51
2022/04/18 06:23:41;;;;;;;5.00;3.60;;;;;;;;;;4972841;28;20453;-52
2022/04/18 06:26:07;;;;;;;3.30;2.97;;;;;;;;;;4964947;28;20441;-52
2022/04/18 06:28:33;;;;;;;4.53;3.17;;;;;;;;;;4954691;28;20441;-50
2022/04/18 06:31:00;;;;;;;3.60;2.80;;;;;;;;;;4980511;28;20503;-51
2022/04/18 06:33:34;;;;;;;5.47;3.17;;;;;;;;;;4937540;28;20438;-53
2022/04/18 06:36:00;;;;;;;3.70;3.40;;;;;;;;;;4978036;28;22437;-52
2022/04/18 06:38:26;;;;;;;6.30;3.17;;;;;;;;;;4959215;28;20889;-51
2022/04/18 06:40:52;;;;;;;4.27;3.07;;;;;;;;;;4981006;28;20457;-49
2022/04/18 06:43:18;;;;;;;5.67;3.50;;;;;;;;;;4981038;28;20471;-51
2022/04/18 06:45:44;;;;;;;4.80;3.40;;;;;;;;;;4984509;28;20977;-51
2022/04/18 06:48:11;;;;;;;3.80;3.07;;;;;;;;;;4964826;28;20514;-51
2022/04/18 06:50:37;;;;;;;3.57;3.20;;;;;;;;;;4989887;28;20437;-51
2022/04/18 06:53:03;;;;;;;4.30;2.87;;;;;;;;;;4968343;28;20519;-51
2022/04/18 06:56:58;;;;;;;3.90;3.27;;;;;;;;;;4989770;28;20226;-51
2022/04/18 06:58:16;;;;;;;4.20;3.67;;;;;;;;;;4961673;28;20474;-53
2022/04/18 07:00:42;;;;;;;9.13;3.37;;;;;;;;;;4988080;28;20473;-54
2022/04/18 07:03:08;;;;;;;7.93;3.47;;;;;;;;;;4939538;28;20440;-51
2022/04/18 07:05:34;;;;;;;3.20;2.90;;;;;;;;;;4986293;28;20441;-51
2022/04/18 07:08:00;;;;;;;3.87;3.13;;;;;;;;;;4977308;28;20564;-52
2022/04/18 07:10:27;;;;;;;4.10;2.97;;;;;;;;;;4985753;28;22481;-52
2022/04/18 07:12:54;;;;;;;4.43;3.50;;;;;;;;;;4968403;28;20457;-53
2022/04/18 07:15:20;;;;;;;4.47;3.23;;;;;;;;;;4984285;28;20722;-52
2022/04/18 07:18:05;;;;;;;3.40;2.80;;;;;;;;;;4952418;28;20442;-53
2022/04/18 07:20:35;;;;;;;4.57;3.77;;;;;;;;;;4974946;28;20508;-53
2022/04/18 07:23:18;;;;;;;4.93;3.40;;;;;;;;;;4983230;28;20739;-55
2022/04/18 07:25:46;;;;;;;3.90;2.90;;;;;;;;;;4980311;28;20499;-52
2022/04/18 07:28:17;;;;;;;5.13;3.10;;;;;;;;;;4975154;28;20920;-52
2022/04/18 07:30:43;;;;;;;5.10;3.00;;;;;;;;;;4979255;28;20546;-53
2022/04/18 07:33:44;;;;;;;4.93;3.67;;;;;;;;;;4984831;28;21409;-53
2022/04/18 07:36:10;;;;;;;5.50;3.77;;;;;;;;;;4982254;28;20491;-50
2022/04/18 07:38:51;;;;;;;6.53;3.00;;;;;;;;;;4959584;28;20560;-50
2022/04/18 07:41:21;;;;;;;4.53;3.27;;;;;;;;;;4978984;28;20484;-53
2022/04/18 07:43:51;;;;;;;5.00;3.37;;;;;;;;;;4976992;28;20437;-52
2022/04/18 07:46:23;;;;;;;5.07;3.80;;;;;;;;;;4983865;28;20465;-52
2022/04/18 07:48:50;;;;;;;4.90;3.57;;;;;;;;;;4965006;28;20982;-51
2022/04/18 07:51:34;;;;;;;4.67;3.47;;;;;;;;;;4982501;28;20476;-52
2022/04/18 07:54:01;;;;;;;4.20;3.67;;;;;;;;;;4961718;28;20739;-52
2022/04/18 07:56:27;;;;;;;5.23;4.17;;;;;;;;;;4980512;28;20489;-52
2022/04/18 07:59:01;;;;;;;5.17;3.80;;;;;;;;;;4966171;28;20440;-52
2022/04/18 08:01:28;;;;;;;5.70;4.20;;;;;;;;;;4987607;28;20445;-52
2022/04/18 08:03:54;;;;;;;6.93;3.83;;;;;;;;;;4979803;28;20437;-52
2022/04/18 08:06:22;;;;;;;4.17;3.40;;;;;;;;;;4981549;28;20449;-54
2022/04/18 08:08:57;;;;;;;5.00;3.30;;;;;;;;;;4966365;28;20489;-52
2022/04/18 08:11:30;;;;;;;5.00;3.53;;;;;;;;;;4976674;28;20476;-51
2022/04/18 08:13:57;;;;;;;4.27;3.10;;;;;;;;;;5005029;28;20872;-51
2022/04/18 08:16:24;;;;;;;5.30;3.30;;;;;;;;;;4964644;28;20476;-53
2022/04/18 08:18:51;;;;;;;5.70;3.60;;;;;;;;;;4977839;28;20441;-52
2022/04/18 08:21:19;;;;;;;4.17;3.60;;;;;;;;;;4966232;28;20449;-51
2022/04/18 08:23:45;;;;;;;4.50;3.00;;;;;;;;;;4984063;28;20844;-52
2022/04/18 08:26:12;;;;;;;4.80;3.00;;;;;;;;;;4971805;28;20812;-51
2022/04/18 08:28:38;;;;;;;5.93;3.23;;;;;;;;;;4986220;28;20481;-52
2022/04/18 08:31:05;;;;;;;6.77;4.07;;;;;;;;;;4962351;28;20562;-52
2022/04/18 08:33:31;;;;;;;4.00;3.10;;;;;;;;;;4984788;28;20935;-52
2022/04/18 08:35:58;;;;;;;4.90;3.37;;;;;;;;;;4966131;28;20470;-53
2022/04/18 08:38:24;;;;;;;3.80;3.30;;;;;;;;;;4970851;28;20753;-53
2022/04/18 08:40:50;;;;;;;6.03;3.37;;;;;;;;;;4975086;28;20475;-52
2022/04/18 08:43:17;;;;;;;4.33;3.60;;;;;;;;;;4977163;28;20974;-51
2022/04/18 08:45:43;;;;;;;5.90;3.87;;;;;;;;;;4979803;28;20488;-52
2022/04/18 08:53:47;;;;;;;6.50;3.80;;;;;;;;;;4978252;28;20961;-52
2022/04/18 08:56:57;;;;;;;3.60;3.20;;;;;;;;;;4951469;28;20485;-53
2022/04/18 08:59:32;;;;;;;4.13;3.13;;;;;;;;;;4967936;28;20437;-51
2022/04/18 09:01:59;;;;;;;4.80;3.07;;;;;;;;;;4974038;28;20994;-52
2022/04/18 09:04:25;;;;;;;3.27;2.70;;;;;;;;;;4979132;28;20429;-52
2022/04/18 09:07:20;;;;;;;4.40;3.47;;;;;;;;;;4971774;28;20446;-57
2022/04/18 09:09:55;;;;;;;4.20;3.43;;;;;;;;;;4953391;28;20471;-52
2022/04/18 09:15:31;;;;;;;3.43;2.90;;;;;;;;;;4949974;28;20492;-53
2022/04/18 09:18:17;;;;;;;3.37;3.07;;;;;;;;;;4985837;28;20433;-53
2022/04/18 09:20:47;;;;;;;6.50;3.70;;;;;;;;;;4989864;28;20453;-52
2022/04/18 09:23:28;;;;;;;11.73;5.40;;;;;;;;;;4961758;28;20445;-52
2022/04/18 09:25:59;;;;;;;4.13;3.50;;;;;;;;;;4981599;28;20436;-52
2022/04/18 09:28:26;;;;;;;5.10;3.00;;;;;;;;;;4954545;28;21454;-51
2022/04/18 09:31:00;;;;;;;3.57;3.00;;;;;;;;;;4980219;28;20512;-53
2022/04/18 09:33:40;;;;;;;3.90;3.50;;;;;;;;;;4972862;28;20527;-52
2022/04/18 09:36:18;;;;;;;3.33;3.03;;;;;;;;;;4974621;28;20525;-54
2022/04/18 09:38:46;;;;;;;7.03;3.00;;;;;;;;;;4936605;28;20440;-52
2022/04/18 09:41:12;;;;;;;3.83;2.93;;;;;;;;;;4978907;28;20441;-50
2022/04/18 09:43:39;;;;;;;6.43;3.10;;;;;;;;;;4948045;28;20439;-49
2022/04/18 09:46:06;;;;;;;4.77;2.73;;;;;;;;;;4980638;28;20504;-52
2022/04/18 09:48:52;;;;;;;5.10;2.97;;;;;;;;;;4933363;28;21167;-54
2022/04/18 09:51:25;;;;;;;5.30;3.50;;;;;;;;;;4955637;28;20480;-51
2022/04/18 09:54:13;;;;;;;4.30;3.10;;;;;;;;;;4950070;28;21330;-52
2022/04/18 09:56:51;;;;;;;4.27;3.23;;;;;;;;;;4978053;28;20962;-52
2022/04/18 09:59:30;;;;;;;3.53;3.23;;;;;;;;;;4963150;28;20964;-51
2022/04/18 10:01:56;;;;;;;4.43;3.20;;;;;;;;;;4947004;28;20442;-53
2022/04/18 10:04:22;;;;;;;12.23;3.60;;;;;;;;;;4976620;28;20651;-51
2022/04/18 10:06:50;;;;;;;5.33;4.53;;;;;;;;;;4978589;28;20492;-52
2022/04/18 10:09:16;;;;;;;5.10;3.10;;;;;;;;;;4994407;28;20442;-52
2022/04/18 10:11:44;;;;;;;5.07;3.63;;;;;;;;;;4947086;28;20437;-51
2022/04/18 10:14:10;;;;;;;3.60;2.87;;;;;;;;;;4980231;28;20437;-51
2022/04/18 10:16:36;;;;;;;5.47;3.47;;;;;;;;;;4947947;28;20647;-52
2022/04/18 10:19:05;;;;;;;3.67;3.03;;;;;;;;;;4986419;28;20442;-52
2022/04/18 10:21:31;;;;;;;4.13;3.37;;;;;;;;;;4953390;28;24327;-53
2022/04/18 10:24:03;;;;;;;3.63;2.63;;;;;;;;;;4996407;28;20802;-52
2022/04/18 10:27:05;;;;;;;3.73;3.37;;;;;;;;;;4953239;28;20516;-53
2022/04/18 10:29:32;;;;;;;3.83;2.83;;;;;;;;;;4974132;28;20987;-51
2022/04/18 10:32:00;;;;;;;6.13;3.17;;;;;;;;;;4971879;28;20807;-51
2022/04/18 10:34:31;;;;;;;4.80;3.00;;;;;;;;;;4981400;28;20455;-52
2022/04/18 10:36:57;;;;;;;5.10;3.87;;;;;;;;;;4963497;28;20474;-52
2022/04/18 10:39:25;;;;;;;3.73;3.17;;;;;;;;;;4978460;28;20449;-51
2022/04/18 10:41:51;;;;;;;5.00;3.97;;;;;;;;;;4985872;28;20547;-53
2022/04/18 10:44:21;;;;;;;4.37;3.33;;;;;;;;;;4985937;28;20512;-53
2022/04/18 10:46:50;;;;;;;4.17;3.10;;;;;;;;;;4957237;28;20981;-52
2022/04/18 10:49:17;;;;;;;6.07;4.00;;;;;;;;;;4980490;28;20436;-52
2022/04/18 10:51:43;;;;;;;4.20;3.20;;;;;;;;;;4974599;28;20444;-52
2022/04/18 10:54:11;;;;;;;3.83;3.30;;;;;;;;;;4979263;28;20441;-52
2022/04/18 10:56:54;;;;;;;3.20;2.87;;;;;;;;;;4969635;28;20461;-52
2022/04/18 10:59:21;;;;;;;4.30;2.93;;;;;;;;;;4973482;28;21000;-53
2022/04/18 11:01:48;;;;;;;4.60;3.07;;;;;;;;;;4961760;28;20943;-52
2022/04/18 11:04:14;;;;;;;3.60;3.30;;;;;;;;;;4973713;28;20935;-52
2022/04/18 11:06:41;;;;;;;3.70;3.20;;;;;;;;;;4963570;28;20452;-52
2022/04/18 11:09:07;;;;;;;3.87;3.20;;;;;;;;;;4980483;28;20618;-52
2022/04/18 11:11:46;;;;;;;5.37;3.37;;;;;;;;;;4971899;28;20445;-52
2022/04/18 11:14:16;;;;;;;4.40;3.47;;;;;;;;;;4976967;28;20488;-51
2022/04/18 11:16:42;;;;;;;4.03;3.23;;;;;;;;;;4963238;28;20650;-53
2022/04/18 11:19:18;;;;;;;8.10;2.90;;;;;;;;;;4984175;28;20713;-52
2022/04/18 11:21:57;;;;;;;4.03;3.13;;;;;;;;;;4964746;28;21025;-53
2022/04/18 11:24:42;;;;;;;6.07;3.60;;;;;;;;;;4978981;28;20428;-51
2022/04/18 11:27:09;;;;;;;3.40;2.87;;;;;;;;;;4975745;28;20527;-52
2022/04/18 11:29:35;;;;;;;5.63;3.10;;;;;;;;;;4984974;28;20477;-52
2022/04/18 11:32:01;;;;;;;4.17;3.37;;;;;;;;;;4962789;28;20513;-52
2022/04/18 11:34:28;;;;;;;4.23;2.83;;;;;;;;;;4980988;28;21297;-54
2022/04/18 11:37:10;;;;;;;4.00;3.40;;;;;;;;;;4964597;28;20463;-51
2022/04/18 11:39:49;;;;;;;4.77;3.87;;;;;;;;;;4986952;28;20448;-52
2022/04/18 11:42:19;;;;;;;4.33;3.47;;;;;;;;;;4978340;28;20536;-52
2022/04/18 11:44:46;;;;;;;4.10;3.70;;;;;;;;;;4985499;28;20868;-52
2022/04/18 11:47:13;;;;;;;5.17;3.83;;;;;;;;;;4968752;28;20455;-53
2022/04/18 11:49:39;;;;;;;4.80;3.40;;;;;;;;;;4984216;28;20471;-52
2022/04/18 11:52:22;;;;;;;4.40;3.60;;;;;;;;;;4979001;28;21022;-53
2022/04/18 11:54:58;;;;;;;5.07;3.33;;;;;;;;;;4937039;28;20512;-50
2022/04/18 11:57:24;;;;;;;4.17;3.77;;;;;;;;;;4961727;28;20933;-51
2022/04/18 11:59:50;;;;;;;5.53;3.57;;;;;;;;;;4945507;28;20460;-52
2022/04/18 12:07:47;;;;;;;4.60;3.73;;;;;;;;;;4972030;28;21315;-52
2022/04/18 12:10:42;;;;;;;6.10;3.10;;;;;;;;;;4960080;28;20503;-52
2022/04/18 12:13:30;;;;;;;5.17;3.73;;;;;;;;;;4967121;28;20444;-54
2022/04/18 12:16:03;;;;;;;4.23;3.70;;;;;;;;;;4978558;28;21219;-52
2022/04/18 12:18:47;;;;;;;4.80;4.00;;;;;;;;;;4968554;28;20985;-53
2022/04/18 12:21:14;;;;;;;4.70;3.70;;;;;;;;;;4981937;28;20951;-52
2022/04/18 12:23:43;;;;;;;6.03;3.67;;;;;;;;;;4969301;28;20984;-54
2022/04/18 12:26:10;;;;;;;4.40;3.63;;;;;;;;;;4991395;28;20456;-51
2022/04/18 12:28:42;;;;;;;4.60;3.10;;;;;;;;;;4954100;28;20444;-53
2022/04/18 12:31:13;;;;;;;5.73;3.67;;;;;;;;;;4978943;28;20594;-52
2022/04/18 12:34:08;;;;;;;5.97;3.50;;;;;;;;;;4976377;28;20477;-51
2022/04/18 12:36:35;;;;;;;4.33;3.67;;;;;;;;;;4982275;28;21653;-53
2022/04/18 12:39:01;;;;;;;4.53;2.90;;;;;;;;;;4968510;28;20652;-51
2022/04/18 12:41:32;;;;;;;4.93;3.37;;;;;;;;;;4980531;28;21626;-55
2022/04/18 12:44:01;;;;;;;4.90;3.37;;;;;;;;;;4957941;28;20981;-51
2022/04/18 12:46:33;;;;;;;5.30;3.40;;;;;;;;;;4979373;28;20546;-53
2022/04/18 12:49:06;;;;;;;6.17;3.40;;;;;;;;;;4945933;28;20445;-51
2022/04/18 12:51:38;;;;;;;4.17;3.13;;;;;;;;;;4979741;28;20476;-54
2022/04/18 12:54:05;;;;;;;7.20;3.27;;;;;;;;;;4979421;28;20770;-51
2022/04/18 12:56:33;;;;;;;5.40;3.30;;;;;;;;;;4981286;28;20480;-53
2022/04/18 12:59:14;;;;;;;3.70;2.77;;;;;;;;;;4962217;28;20925;-51
2022/04/18 13:01:41;;;;;;;3.73;3.20;;;;;;;;;;4980099;28;20444;-51
2022/04/18 13:04:34;;;;;;;4.17;2.90;;;;;;;;;;4961351;28;21014;-51
2022/04/18 13:10:04;;;;;;;3.43;2.93;;;;;;;;;;4978758;28;20483;-53
2022/04/18 13:13:04;;;;;;;3.73;2.80;;;;;;;;;;4979714;28;20433;-52
2022/04/18 13:15:34;;;;;;;2.97;2.67;;;;;;;;;;4975133;28;20487;-51
2022/04/18 13:18:04;;;;;;;3.87;2.80;;;;;;;;;;4960478;28;20434;-51
2022/04/18 13:20:30;;;;;;;4.23;3.00;;;;;;;;;;4944026;28;20482;-51
2022/04/18 13:22:56;;;;;;;4.17;3.30;;;;;;;;;;4976604;28;20453;-51
2022/04/18 13:25:22;;;;;;;3.87;3.23;;;;;;;;;;4975330;28;20622;-50
2022/04/18 13:27:48;;;;;;;4.20;2.90;;;;;;;;;;4974301;28;20287;-52
2022/04/18 13:30:15;;;;;;;4.27;3.10;;;;;;;;;;4956822;28;20457;-52
2022/04/18 13:32:41;;;;;;;6.27;3.20;;;;;;;;;;4981271;28;20704;-51
2022/04/18 13:35:07;;;;;;;3.33;2.63;;;;;;;;;;4964088;28;20501;-52
2022/04/18 13:37:33;;;;;;;3.43;3.07;;;;;;;;;;4991370;28;20438;-51
2022/04/18 13:40:08;;;;;;;4.87;2.67;;;;;;;;;;4950833;28;20851;-52
2022/04/18 13:42:35;;;;;;;3.37;3.07;;;;;;;;;;4976153;28;20471;-50
2022/04/18 13:45:01;;;;;;;4.20;3.40;;;;;;;;;;4955285;28;21122;-50
2022/04/18 13:47:27;;;;;;;5.40;3.00;;;;;;;;;;4984970;28;20204;-52
2022/04/18 13:49:53;;;;;;;4.93;3.17;;;;;;;;;;4963139;28;20464;-52
2022/04/18 13:52:31;;;;;;;3.53;2.80;;;;;;;;;;4977438;28;20437;-52
2022/04/18 13:55:13;;;;;;;3.10;2.23;;;;;;;;;;4949360;28;20468;-51
2022/04/18 13:57:41;;;;;;;3.43;2.60;;;;;;;;;;4973433;28;20554;-52
2022/04/18 14:00:08;;;;;;;3.70;2.80;;;;;;;;;;4946580;28;20487;-51
2022/04/18 14:02:34;;;;;;;3.33;2.30;;;;;;;;;;4972301;28;20498;-51
2022/04/18 14:05:01;;;;;;;4.07;2.50;;;;;;;;;;4939729;28;20496;-50
2022/04/18 14:07:28;;;;;;;3.87;2.83;;;;;;;;;;4962492;28;20432;-51
2022/04/18 14:10:07;;;;;;;3.80;2.60;;;;;;;;;;4959926;28;20524;-53
2022/04/18 14:12:56;;;;;;;3.50;2.40;;;;;;;;;;4965083;28;20435;-53
2022/04/18 14:21:19;;;;;;;3.50;2.27;;;;;;;;;;4973933;28;20482;-52
2022/04/18 14:23:46;;;;;;;3.00;2.00;;;;;;;;;;4978961;28;20449;-51
2022/04/18 14:26:15;;;;;;;4.17;3.77;;;;;;;;;;4973659;28;20496;-54
2022/04/18 14:28:43;;;;;;;3.27;2.17;;;;;;;;;;4953375;28;20499;-51
2022/04/18 14:31:10;;;;;;;4.00;2.70;;;;;;;;;;4981393;28;20470;-52
2022/04/18 14:33:36;;;;;;;2.57;2.10;;;;;;;;;;4959088;28;20449;-52
2022/04/18 14:36:03;;;;;;;5.50;2.60;;;;;;;;;;4965747;28;21008;-51
2022/04/18 14:38:30;;;;;;;2.37;2.00;;;;;;;;;;4956645;28;20573;-51
2022/04/18 14:40:56;;;;;;;5.80;2.40;;;;;;;;;;4939223;28;20785;-53
2022/04/18 14:43:22;;;;;;;2.90;2.30;;;;;;;;;;4946048;28;20437;-50
2022/04/18 14:45:56;;;;;;;4.57;2.50;;;;;;;;;;4944106;28;20476;-50
2022/04/18 14:48:26;;;;;;;2.43;2.03;;;;;;;;;;4976355;28;20433;-52
2022/04/18 14:51:00;;;;;;;4.90;2.10;;;;;;;;;;4955041;28;20977;-55
2022/04/18 14:53:26;;;;;;;2.47;1.97;;;;;;;;;;4976557;28;20441;-52
2022/04/18 14:55:52;;;;;;;3.13;2.07;;;;;;;;;;4971851;28;20480;-52
2022/04/18 14:58:18;;;;;;;3.20;2.10;;;;;;;;;;4959439;28;20583;-50
2022/04/18 15:00:45;;;;;;;3.60;1.90;;;;;;;;;;4928767;28;24426;-50
2022/04/18 15:03:12;;;;;;;2.93;2.00;;;;;;;;;;4957434;28;20825;-51
2022/04/18 15:05:38;;;;;;;3.67;2.50;;;;;;;;;;4966564;28;20531;-51
2022/04/18 15:08:04;;;;;;;3.20;1.93;;;;;;;;;;4954865;28;20441;-50
2022/04/18 15:11:01;;;;;;;2.70;2.20;;;;;;;;;;4965724;28;20465;-52
2022/04/18 15:13:28;;;;;;;4.00;2.00;;;;;;;;;;4971989;28;20503;-52
2022/04/18 15:18:58;;;;;;;2.77;2.00;;;;;;;;;;4966180;28;21343;-51
2022/04/18 15:21:24;;;;;;;2.90;2.67;;;;;;;;;;4970985;28;20445;-54
2022/04/18 15:23:50;;;;;;;3.10;1.80;;;;;;;;;;4972398;28;20444;-51
2022/04/18 15:26:16;;;;;;;3.00;2.10;;;;;;;;;;4953409;28;21535;-51
2022/04/18 15:28:42;;;;;;;2.97;2.10;;;;;;;;;;4971578;28;20962;-51
2022/04/18 15:33:55;;;;;;;4.00;2.30;;;;;;;;;;4972634;28;20441;-50
2022/04/18 15:36:21;;;;;;;3.10;2.43;;;;;;;;;;4938533;28;20495;-50
2022/04/18 15:38:49;;;;;;;3.30;2.97;;;;;;;;;;4964143;28;20441;-52
2022/04/18 15:41:16;;;;;;;7.80;2.47;;;;;;;;;;4957422;28;20457;-51
2022/04/18 15:43:42;;;;;;;5.83;2.10;;;;;;;;;;4986487;28;20452;-53
2022/04/18 15:46:09;;;;;;;2.30;2.10;;;;;;;;;;4974475;28;20433;-52
2022/04/18 15:48:35;;;;;;;2.60;1.83;;;;;;;;;;4972852;28;20516;-50
2022/04/18 15:51:17;;;;;;;5.50;2.53;;;;;;;;;;4973158;28;20507;-51